createdAt,value
2023-05-10T00:00:05.733Z,2.75
2023-05-10T00:02:33.322Z,2.80
2023-05-10T00:05:02.299Z,2.80
2023-05-10T00:07:29.897Z,2.65
2023-05-10T00:09:57.380Z,2.67
2023-05-10T00:12:24.907Z,2.70
2023-05-10T00:14:52.418Z,2.65
2023-05-10T00:17:19.913Z,2.65
2023-05-10T00:19:47.400Z,2.50
2023-05-10T00:22:16.216Z,2.67
2023-05-10T00:24:43.688Z,2.40
2023-05-10T00:27:11.158Z,2.10
2023-05-10T00:29:38.650Z,2.17
2023-05-10T00:32:06.857Z,2.17
2023-05-10T00:34:34.557Z,2.17
2023-05-10T00:37:02.431Z,2.40
2023-05-10T00:39:31.241Z,2.70
2023-05-10T00:41:58.820Z,3.40
2023-05-10T00:44:26.303Z,3.63
2023-05-10T00:46:54.644Z,4.20
2023-05-10T00:49:22.821Z,4.32
2023-05-10T00:51:51.300Z,4.15
2023-05-10T00:54:19.036Z,4.20
2023-05-10T00:56:49.859Z,4.55
2023-05-10T00:59:18.624Z,4.82
2023-05-10T01:01:46.540Z,5.05
2023-05-10T01:04:15.678Z,5.40
2023-05-10T01:06:43.407Z,5.13
2023-05-10T01:09:12.547Z,5.10
2023-05-10T01:11:41.860Z,5.50
2023-05-10T01:14:10.794Z,5.75
2023-05-10T01:16:40.887Z,6.10
2023-05-10T01:19:14.796Z,5.70
2023-05-10T01:21:50.403Z,5.72
2023-05-10T01:24:41.933Z,6.25
2023-05-10T01:27:26.214Z,5.30
2023-05-10T01:30:44.834Z,5.57
2023-05-10T01:33:19.932Z,5.15
2023-05-10T01:38:21.065Z,5.40
2023-05-10T01:40:59.180Z,5.60
2023-05-10T01:43:30.793Z,5.88
2023-05-10T01:46:05.447Z,5.72
2023-05-10T01:48:35.310Z,5.55
2023-05-10T01:51:02.795Z,5.88
2023-05-10T01:53:31.216Z,6.28
2023-05-10T01:56:00.811Z,5.72
2023-05-10T01:58:32.223Z,5.75
2023-05-10T02:01:02.548Z,5.40
2023-05-10T02:03:31.685Z,5.68
2023-05-10T02:06:01.172Z,5.50
2023-05-10T02:08:29.141Z,5.15
2023-05-10T02:10:58.345Z,5.10
2023-05-10T02:13:27.654Z,4.88
2023-05-10T02:15:57.031Z,5.22
2023-05-10T02:18:25.826Z,5.65
2023-05-10T02:20:55.963Z,4.80
2023-05-10T02:23:25.575Z,5.22
2023-05-10T02:25:54.148Z,5.32
2023-05-10T02:28:22.996Z,4.90
2023-05-10T02:30:51.474Z,5.30
2023-05-10T02:33:20.252Z,5.43
2023-05-10T02:35:48.870Z,4.63
2023-05-10T02:38:17.819Z,4.65
2023-05-10T02:40:48.256Z,4.43
2023-05-10T02:43:18.920Z,4.95
2023-05-10T02:45:49.930Z,5.18
2023-05-10T02:48:18.491Z,5.25
2023-05-10T02:50:47.637Z,5.68
2023-05-10T02:53:20.352Z,5.57
2023-05-10T02:55:53.509Z,5.78
2023-05-10T02:58:21.760Z,6.50
2023-05-10T03:00:49.259Z,7.18
2023-05-10T03:03:16.666Z,6.50
2023-05-10T03:05:44.162Z,6.18
2023-05-10T03:08:11.971Z,6.20
2023-05-10T03:10:57.546Z,6.50
2023-05-10T03:16:01.363Z,7.57
2023-05-10T03:18:35.857Z,7.75
2023-05-10T03:21:06.541Z,7.32
2023-05-10T03:23:37.853Z,7.55
2023-05-10T03:26:07.219Z,7.75
2023-05-10T03:28:36.589Z,8.30
2023-05-10T03:31:06.268Z,7.93
2023-05-10T03:33:33.869Z,8.32
2023-05-10T03:36:01.346Z,9.38
2023-05-10T03:38:30.531Z,9.20
2023-05-10T03:40:58.192Z,8.52
2023-05-10T03:43:27.068Z,8.45
2023-05-10T03:45:54.716Z,9.73
2023-05-10T03:48:22.203Z,9.15
2023-05-10T03:50:50.194Z,9.07
2023-05-10T03:53:17.674Z,9.48
2023-05-10T03:55:45.735Z,10.25
2023-05-10T03:58:13.546Z,10.60
2023-05-10T04:00:44.710Z,10.05
2023-05-10T04:03:12.490Z,11.25
2023-05-10T04:05:40.302Z,11.63
2023-05-10T04:08:08.218Z,10.30
2023-05-10T04:10:35.728Z,10.82
2023-05-10T04:13:03.234Z,10.82
2023-05-10T04:15:30.701Z,10.32
2023-05-10T04:17:59.556Z,10.55
2023-05-10T04:20:27.028Z,11.20
2023-05-10T04:22:54.528Z,11.02
2023-05-10T04:25:22.057Z,10.43
2023-05-10T04:27:49.533Z,11.02
2023-05-10T04:30:17.536Z,10.43
2023-05-10T04:32:45.277Z,11.10
2023-05-10T04:35:15.712Z,12.05
2023-05-10T04:37:44.043Z,10.82
2023-05-10T04:40:12.303Z,11.25
2023-05-10T04:42:41.994Z,11.40
2023-05-10T04:45:11.352Z,11.10
2023-05-10T04:47:38.882Z,10.75
2023-05-10T04:50:08.177Z,11.68
2023-05-10T04:52:37.296Z,12.18
2023-05-10T04:55:05.517Z,13.20
2023-05-10T04:57:33.025Z,12.43
2023-05-10T05:00:01.795Z,13.57
2023-05-10T05:02:29.316Z,13.65
2023-05-10T05:04:58.649Z,14.30
2023-05-10T05:07:26.206Z,14.75
2023-05-10T05:09:55.342Z,16.17
2023-05-10T05:12:22.817Z,15.15
2023-05-10T05:14:50.295Z,16.05
2023-05-10T05:17:17.802Z,15.50
2023-05-10T05:19:45.213Z,15.05
2023-05-10T05:22:12.676Z,15.77
2023-05-10T05:24:40.137Z,17.23
2023-05-10T05:27:08.972Z,16.85
2023-05-10T05:29:36.435Z,16.85
2023-05-10T05:32:04.216Z,17.38
2023-05-10T05:34:31.771Z,16.42
2023-05-10T05:36:59.216Z,17.08
2023-05-10T05:39:26.613Z,15.70
2023-05-10T05:41:54.071Z,17.98
2023-05-10T05:44:22.830Z,16.70
2023-05-10T05:46:50.294Z,17.83
2023-05-10T05:49:17.788Z,18.75
2023-05-10T05:51:45.398Z,18.90
2023-05-10T05:54:12.802Z,17.17
2023-05-10T05:56:40.237Z,18.15
2023-05-10T05:59:07.694Z,17.30
2023-05-10T06:01:36.467Z,16.55
2023-05-10T06:04:04.102Z,18.33
2023-05-10T06:06:33.121Z,19.95
2023-05-10T06:09:00.655Z,18.83
2023-05-10T06:11:28.124Z,17.55
2023-05-10T06:13:55.627Z,19.30
2023-05-10T06:16:23.338Z,19.27
2023-05-10T06:18:52.226Z,18.63
2023-05-10T06:21:19.707Z,18.70
2023-05-10T06:23:47.206Z,18.98
2023-05-10T06:26:14.841Z,18.58
2023-05-10T06:28:42.368Z,17.35
2023-05-10T06:31:09.861Z,19.23
2023-05-10T06:33:37.334Z,18.30
2023-05-10T06:36:06.818Z,18.40
2023-05-10T06:38:34.292Z,18.38
2023-05-10T06:41:01.770Z,17.65
2023-05-10T06:43:29.535Z,17.83
2023-05-10T06:45:57.019Z,17.55
2023-05-10T06:48:24.585Z,17.95
2023-05-10T06:50:52.064Z,17.92
2023-05-10T06:53:21.275Z,16.95
2023-05-10T06:55:48.760Z,16.92
2023-05-10T06:58:16.235Z,17.08
2023-05-10T07:00:44.686Z,17.20
2023-05-10T07:03:12.605Z,17.15
2023-05-10T07:05:40.258Z,16.80
2023-05-10T07:08:07.807Z,17.48
2023-05-10T07:10:36.676Z,18.10
2023-05-10T07:13:04.199Z,17.23
2023-05-10T07:15:31.769Z,17.20
2023-05-10T07:17:59.371Z,16.70
2023-05-10T07:20:26.921Z,16.75
2023-05-10T07:22:54.357Z,17.15
2023-05-10T07:25:21.979Z,17.92
2023-05-10T07:27:51.838Z,18.60
2023-05-10T07:30:19.574Z,18.30
2023-05-10T07:32:47.093Z,20.65
2023-05-10T07:35:14.721Z,21.83
2023-05-10T07:37:42.384Z,20.77
2023-05-10T07:40:10.920Z,22.13
2023-05-10T07:42:39.318Z,22.15
2023-05-10T07:45:10.335Z,21.15
2023-05-10T07:47:37.818Z,23.02
2023-05-10T07:50:06.237Z,20.27
2023-05-10T07:52:33.691Z,20.10
2023-05-10T07:55:01.155Z,19.27
2023-05-10T07:57:28.624Z,17.60
2023-05-10T07:59:56.183Z,15.95
2023-05-10T08:02:25.177Z,13.60
2023-05-10T08:04:52.969Z,13.13
2023-05-10T08:07:20.510Z,11.75
2023-05-10T08:09:48.153Z,12.15
2023-05-10T08:12:15.603Z,12.73
2023-05-10T08:14:43.203Z,11.77
2023-05-10T08:17:11.031Z,11.00
2023-05-10T08:19:39.965Z,11.52
2023-05-10T08:22:07.535Z,11.65
2023-05-10T08:24:39.093Z,12.30
2023-05-10T08:27:06.815Z,11.57
2023-05-10T08:29:46.221Z,12.10
2023-05-10T08:32:17.324Z,13.07
2023-05-10T08:34:46.212Z,11.57
2023-05-10T08:37:14.356Z,11.43
2023-05-10T08:39:42.229Z,11.90
2023-05-10T08:42:10.836Z,12.40
2023-05-10T08:44:38.898Z,13.48
2023-05-10T08:47:08.530Z,12.20
2023-05-10T08:49:36.371Z,11.55
2023-05-10T08:52:06.361Z,13.63
2023-05-10T08:54:34.503Z,11.32
2023-05-10T08:57:02.082Z,12.93
2023-05-10T08:59:29.664Z,11.35
2023-05-10T09:02:00.409Z,11.20
2023-05-10T09:04:28.209Z,10.07
2023-05-10T09:06:56.405Z,10.15
2023-05-10T09:09:27.085Z,10.90
2023-05-10T09:11:55.746Z,8.52
2023-05-10T09:14:26.399Z,8.25
2023-05-10T09:16:56.076Z,7.05
2023-05-10T09:19:23.647Z,7.45
2023-05-10T09:21:51.138Z,7.00
2023-05-10T09:24:18.645Z,6.65
2023-05-10T09:26:50.692Z,7.20
2023-05-10T09:29:18.217Z,8.35
2023-05-10T09:31:48.310Z,8.15
2023-05-10T09:34:20.339Z,7.50
2023-05-10T09:36:57.170Z,7.68
2023-05-10T09:39:33.187Z,8.55
2023-05-10T09:42:05.588Z,6.80
2023-05-10T09:44:33.409Z,8.00
2023-05-10T09:47:00.909Z,7.63
2023-05-10T09:49:28.514Z,7.70
2023-05-10T09:52:04.246Z,7.38
2023-05-10T09:54:32.189Z,7.35
2023-05-10T09:56:59.657Z,7.80
2023-05-10T09:59:30.078Z,7.25
2023-05-10T10:01:58.620Z,7.00
2023-05-10T10:04:26.472Z,7.60
2023-05-10T10:07:04.997Z,8.98
2023-05-10T10:09:33.471Z,9.93
2023-05-10T10:12:01.627Z,10.02
2023-05-10T10:14:32.015Z,9.15
2023-05-10T10:19:35.225Z,9.02
2023-05-10T10:22:03.685Z,8.65
2023-05-10T10:24:31.274Z,10.65
2023-05-10T10:27:07.472Z,11.52
2023-05-10T10:29:41.546Z,13.35
2023-05-10T10:32:19.459Z,14.67
2023-05-10T10:34:47.178Z,14.05
2023-05-10T10:37:14.640Z,15.65
2023-05-10T10:39:42.091Z,15.40
2023-05-10T10:42:09.620Z,14.95
2023-05-10T10:44:42.760Z,13.90
2023-05-10T10:47:30.562Z,11.70
2023-05-10T10:50:06.094Z,12.10
2023-05-10T10:52:35.081Z,10.73
2023-05-10T10:55:05.123Z,11.68
2023-05-10T10:57:45.163Z,11.07
2023-05-10T11:00:28.779Z,10.80
2023-05-10T11:02:59.437Z,10.80
2023-05-10T11:05:38.613Z,10.10
2023-05-10T11:08:12.313Z,8.80
2023-05-10T11:10:40.979Z,8.57
2023-05-10T11:13:09.509Z,8.55
2023-05-10T11:15:39.734Z,8.23
2023-05-10T11:18:20.740Z,8.30
2023-05-10T11:20:53.428Z,8.63
2023-05-10T11:23:21.974Z,9.05
2023-05-10T11:25:50.799Z,8.30
2023-05-10T11:28:20.812Z,9.05
2023-05-10T11:30:50.202Z,9.70
2023-05-10T11:33:20.305Z,9.32
2023-05-10T11:35:48.253Z,10.73
2023-05-10T11:38:16.262Z,10.02
2023-05-10T11:40:44.029Z,10.45
2023-05-10T11:43:13.029Z,12.15
2023-05-10T11:45:43.193Z,13.77
2023-05-10T11:48:12.454Z,13.52
2023-05-10T11:50:40.265Z,12.85
2023-05-10T11:53:07.841Z,11.90
2023-05-10T11:55:35.903Z,11.07
2023-05-10T11:58:04.375Z,10.55
2023-05-10T12:00:33.188Z,9.48
2023-05-10T12:03:03.736Z,9.93
2023-05-10T12:05:35.225Z,10.85
2023-05-10T12:08:16.430Z,10.65
2023-05-10T12:10:43.895Z,11.23
2023-05-10T12:13:16.222Z,10.60
2023-05-10T12:15:44.663Z,10.50
2023-05-10T12:18:13.248Z,10.57
2023-05-10T12:20:43.396Z,11.40
2023-05-10T12:23:11.771Z,11.85
2023-05-10T12:25:40.964Z,11.23
2023-05-10T12:28:10.768Z,11.57
2023-05-10T12:30:39.613Z,12.35
2023-05-10T12:33:10.962Z,11.82
2023-05-10T12:35:48.197Z,11.48
2023-05-10T12:38:30.712Z,11.07
2023-05-10T12:40:59.331Z,10.15
2023-05-10T12:43:26.916Z,9.20
2023-05-10T12:45:54.749Z,9.85
2023-05-10T12:48:22.313Z,8.85
2023-05-10T12:50:51.217Z,9.05
2023-05-10T12:53:18.820Z,9.15
2023-05-10T12:55:46.576Z,8.57
2023-05-10T12:58:27.531Z,9.95
2023-05-10T13:01:01.603Z,13.98
2023-05-10T13:03:29.083Z,10.95
2023-05-10T13:05:57.940Z,15.70
2023-05-10T13:08:25.892Z,12.90
2023-05-10T13:10:54.095Z,14.30
2023-05-10T13:13:21.625Z,12.10
2023-05-10T13:15:49.116Z,11.07
2023-05-10T13:18:16.689Z,10.70
2023-05-10T13:20:45.134Z,8.85
2023-05-10T13:23:13.993Z,8.52
2023-05-10T13:25:41.478Z,8.23
2023-05-10T13:28:09.020Z,9.00
2023-05-10T13:30:36.732Z,8.80
2023-05-10T13:33:04.191Z,10.13
2023-05-10T13:35:31.685Z,9.20
2023-05-10T13:37:59.143Z,9.00
2023-05-10T13:40:28.981Z,7.57
2023-05-10T13:42:56.437Z,8.73
2023-05-10T13:45:24.010Z,7.85
2023-05-10T13:47:51.717Z,8.18
2023-05-10T13:50:19.404Z,7.35
2023-05-10T13:52:46.887Z,7.15
2023-05-10T13:55:15.025Z,6.55
2023-05-10T13:57:44.211Z,6.85
2023-05-10T14:00:12.701Z,6.40
2023-05-10T14:02:40.393Z,7.00
2023-05-10T14:05:08.418Z,6.65
2023-05-10T14:07:35.883Z,5.72
2023-05-10T14:10:03.750Z,6.68
2023-05-10T14:12:31.250Z,5.53
2023-05-10T14:15:00.065Z,5.47
2023-05-10T14:17:27.832Z,5.47
2023-05-10T14:19:55.324Z,5.13
2023-05-10T14:22:23.482Z,4.85
2023-05-10T14:24:51.082Z,4.20
2023-05-10T14:27:18.898Z,3.80
2023-05-10T14:29:46.507Z,3.75
2023-05-10T14:32:15.371Z,3.83
2023-05-10T14:34:43.154Z,4.00
2023-05-10T14:37:12.357Z,3.90
2023-05-10T14:39:39.971Z,3.88
2023-05-10T14:42:07.520Z,3.60
2023-05-10T14:44:35.030Z,3.33
2023-05-10T14:47:02.543Z,4.35
2023-05-10T14:49:31.329Z,4.40
2023-05-10T14:51:58.821Z,3.20
2023-05-10T14:54:26.824Z,4.45
2023-05-10T14:56:54.327Z,4.20
2023-05-10T14:59:22.518Z,4.43
2023-05-10T15:01:50.479Z,4.32
2023-05-10T15:04:18.520Z,4.22
2023-05-10T15:06:47.787Z,4.70
2023-05-10T15:09:16.474Z,5.10
2023-05-10T15:11:45.314Z,4.90
2023-05-10T15:14:12.743Z,5.40
2023-05-10T15:16:40.376Z,5.38
2023-05-10T15:19:08.015Z,4.60
2023-05-10T15:21:39.628Z,5.50
2023-05-10T15:24:08.626Z,4.65
2023-05-10T15:26:36.178Z,5.43
2023-05-10T15:29:03.705Z,5.40
2023-05-10T15:31:31.163Z,5.22
2023-05-10T15:33:59.817Z,5.07
2023-05-10T15:36:27.270Z,4.97
2023-05-10T15:38:55.500Z,5.43
2023-05-10T15:41:25.508Z,5.35
2023-05-10T15:43:53.007Z,5.63
2023-05-10T15:46:20.627Z,6.22
2023-05-10T15:48:48.153Z,5.95
2023-05-10T15:51:15.723Z,6.22
2023-05-10T15:53:53.106Z,6.97
2023-05-10T15:56:26.605Z,7.22
2023-05-10T15:58:54.059Z,8.52
2023-05-10T16:01:21.881Z,8.07
2023-05-10T16:03:49.421Z,8.40
2023-05-10T16:06:16.969Z,9.10
2023-05-10T16:08:44.433Z,8.90
2023-05-10T16:11:11.948Z,9.70
2023-05-10T16:13:40.817Z,9.23
2023-05-10T16:16:09.448Z,8.75
2023-05-10T16:18:37.039Z,9.52
2023-05-10T16:21:04.775Z,10.35
2023-05-10T16:23:32.341Z,10.07
2023-05-10T16:25:59.797Z,10.15
2023-05-10T16:28:27.285Z,9.40
2023-05-10T16:30:56.085Z,9.40
2023-05-10T16:33:23.641Z,9.88
2023-05-10T16:35:51.099Z,9.60
2023-05-10T16:38:18.565Z,9.60
2023-05-10T16:40:46.025Z,9.52
2023-05-10T16:43:13.572Z,9.32
2023-05-10T16:45:42.116Z,9.75
2023-05-10T16:48:10.962Z,10.70
2023-05-10T16:50:38.434Z,10.05
2023-05-10T16:53:05.915Z,9.32
2023-05-10T16:55:33.406Z,8.23
2023-05-10T16:58:02.749Z,9.95
2023-05-10T17:00:30.411Z,9.75
2023-05-10T17:02:57.991Z,10.52
2023-05-10T17:05:27.035Z,10.45
2023-05-10T17:07:54.548Z,9.88
2023-05-10T17:10:22.057Z,9.90
2023-05-10T17:12:49.533Z,9.60
2023-05-10T17:15:19.160Z,9.07
2023-05-10T17:17:47.585Z,8.38
2023-05-10T17:20:15.058Z,7.95
2023-05-10T17:22:43.900Z,8.25
2023-05-10T17:25:12.735Z,8.75
2023-05-10T17:27:40.329Z,8.98
2023-05-10T17:30:08.931Z,9.80
2023-05-10T17:32:36.465Z,8.00
2023-05-10T17:35:05.027Z,8.20
2023-05-10T17:37:34.580Z,7.68
2023-05-10T17:40:05.692Z,7.15
2023-05-10T17:42:33.452Z,9.05
2023-05-10T17:45:01.191Z,9.10
2023-05-10T17:47:28.731Z,7.30
2023-05-10T17:49:56.232Z,7.28
2023-05-10T17:52:23.708Z,7.00
2023-05-10T17:54:51.241Z,7.70
2023-05-10T17:57:20.674Z,6.45
2023-05-10T17:59:48.187Z,6.47
2023-05-10T18:02:15.675Z,6.68
2023-05-10T18:04:43.264Z,7.30
2023-05-10T18:07:10.805Z,6.80
2023-05-10T18:09:38.270Z,6.47
2023-05-10T18:12:06.585Z,5.97
2023-05-10T18:14:41.000Z,5.60
2023-05-10T18:19:36.654Z,4.47
2023-05-10T18:22:04.145Z,4.90
2023-05-10T18:24:38.334Z,4.25
2023-05-10T18:27:07.480Z,4.60
2023-05-10T18:29:36.735Z,4.45
2023-05-10T18:32:04.359Z,3.78
2023-05-10T18:34:31.862Z,3.90
2023-05-10T18:37:00.000Z,3.95
2023-05-10T18:39:27.570Z,4.65
2023-05-10T18:41:55.086Z,4.32
2023-05-10T18:44:25.806Z,3.83
2023-05-10T18:46:55.372Z,4.15
2023-05-10T18:49:23.766Z,3.83
2023-05-10T18:51:51.369Z,4.10
2023-05-10T18:54:18.906Z,3.80
2023-05-10T18:56:46.466Z,3.88
2023-05-10T18:59:14.204Z,3.45
2023-05-10T19:01:42.218Z,4.50
2023-05-10T19:04:11.098Z,4.65
2023-05-10T19:06:38.763Z,4.43
2023-05-10T19:09:06.241Z,4.57
2023-05-10T19:11:34.448Z,4.43
2023-05-10T19:14:02.244Z,4.32
2023-05-10T19:16:30.643Z,4.93
2023-05-10T19:18:58.365Z,4.95
2023-05-10T19:21:27.523Z,5.03
2023-05-10T19:23:56.709Z,5.47
2023-05-10T19:26:24.488Z,6.10
2023-05-10T19:28:52.681Z,5.68
2023-05-10T19:31:20.525Z,6.18
2023-05-10T19:33:48.113Z,5.88
2023-05-10T19:36:15.651Z,6.43
2023-05-10T19:38:44.543Z,6.47
2023-05-10T19:41:12.922Z,6.10
2023-05-10T19:43:41.683Z,6.50
2023-05-10T19:46:09.921Z,6.32
2023-05-10T19:48:37.485Z,6.85
2023-05-10T19:51:07.846Z,7.65
2023-05-10T19:53:37.606Z,7.50
2023-05-10T19:56:07.434Z,8.20
2023-05-10T19:58:35.292Z,8.57
2023-05-10T20:01:03.679Z,8.20
2023-05-10T20:03:31.295Z,7.82
2023-05-10T20:05:58.776Z,7.78
2023-05-10T20:08:26.259Z,7.15
2023-05-10T20:10:53.748Z,7.38
2023-05-10T20:13:22.538Z,7.75
2023-05-10T20:15:50.008Z,7.22
2023-05-10T20:18:17.560Z,7.65
2023-05-10T20:20:46.100Z,8.43
2023-05-10T20:23:14.896Z,8.27
2023-05-10T20:25:42.692Z,8.88
2023-05-10T20:28:10.818Z,9.00
2023-05-10T20:30:40.739Z,9.45
2023-05-10T20:33:09.174Z,10.07
2023-05-10T20:35:36.772Z,9.98
2023-05-10T20:38:04.239Z,9.40
2023-05-10T20:40:32.715Z,8.98
2023-05-10T20:43:00.231Z,9.40
2023-05-10T20:45:27.709Z,8.95
2023-05-10T20:47:56.984Z,8.57
2023-05-10T20:50:24.928Z,8.88
2023-05-10T20:52:52.399Z,8.80
2023-05-10T20:55:19.907Z,8.90
2023-05-10T20:57:47.423Z,8.75
2023-05-10T21:00:15.852Z,9.73
2023-05-10T21:02:45.260Z,8.98
2023-05-10T21:05:14.233Z,9.40
2023-05-10T21:07:41.795Z,9.43
2023-05-10T21:10:11.248Z,8.82
2023-05-10T21:12:38.758Z,9.77
2023-05-10T21:15:07.090Z,9.95
2023-05-10T21:17:34.590Z,8.95
2023-05-10T21:20:02.072Z,9.18
2023-05-10T21:22:30.868Z,9.00
2023-05-10T21:24:58.324Z,9.93
2023-05-10T21:27:25.948Z,9.65
2023-05-10T21:29:53.529Z,9.27
2023-05-10T21:32:21.015Z,9.52
2023-05-10T21:34:48.547Z,9.60
2023-05-10T21:37:16.632Z,8.57
2023-05-10T21:39:45.448Z,8.88
2023-05-10T21:42:12.887Z,9.02
2023-05-10T21:44:40.349Z,10.20
2023-05-10T21:47:07.881Z,10.15
2023-05-10T21:49:35.301Z,9.43
2023-05-10T21:52:02.732Z,8.95
2023-05-10T21:54:30.219Z,8.73
2023-05-10T21:56:58.992Z,9.77
2023-05-10T21:59:26.480Z,9.10
2023-05-10T22:01:53.944Z,8.85
2023-05-10T22:04:21.885Z,9.48
2023-05-10T22:06:49.951Z,8.70
2023-05-10T22:09:17.456Z,8.80
2023-05-10T22:11:44.940Z,8.95
2023-05-10T22:14:13.779Z,7.55
2023-05-10T22:16:41.340Z,9.90
2023-05-10T22:19:08.962Z,10.05
2023-05-10T22:21:36.503Z,9.77
2023-05-10T22:24:04.141Z,9.10
2023-05-10T22:26:31.627Z,9.48
2023-05-10T22:28:59.116Z,9.65
2023-05-10T22:31:28.091Z,8.65
2023-05-10T22:33:55.667Z,9.25
2023-05-10T22:36:23.184Z,8.75
2023-05-10T22:38:50.669Z,9.55
2023-05-10T22:41:18.170Z,9.40
2023-05-10T22:43:45.834Z,9.10
2023-05-10T22:46:13.430Z,9.25
2023-05-10T22:48:43.706Z,8.25
2023-05-10T22:51:11.920Z,9.23
2023-05-10T22:53:39.465Z,9.95
2023-05-10T22:56:07.348Z,10.32
2023-05-10T22:58:35.031Z,10.40
2023-05-10T23:01:02.503Z,10.77
2023-05-10T23:03:32.463Z,10.93
2023-05-10T23:06:01.311Z,10.85
2023-05-10T23:08:28.826Z,10.65
2023-05-10T23:10:56.753Z,11.23
2023-05-10T23:13:24.735Z,10.63
2023-05-10T23:15:52.242Z,11.30
2023-05-10T23:18:19.779Z,12.90
2023-05-10T23:20:47.249Z,12.00
2023-05-10T23:23:16.587Z,10.52
2023-05-10T23:25:44.026Z,11.05
2023-05-10T23:28:11.506Z,10.27
2023-05-10T23:30:38.972Z,11.15
2023-05-10T23:33:06.481Z,11.35
2023-05-10T23:35:33.934Z,11.48
2023-05-10T23:38:01.981Z,12.23
2023-05-10T23:40:30.912Z,12.65
2023-05-10T23:42:58.381Z,12.85
2023-05-10T23:45:26.084Z,13.35
2023-05-10T23:47:53.609Z,13.93
2023-05-10T23:50:21.361Z,13.32
2023-05-10T23:52:49.080Z,13.85
2023-05-10T23:55:16.804Z,14.57
2023-05-10T23:57:45.590Z,13.65
